Details for Ryanair at LEGE




Go Back


Latest METAR
Local Time

LEGE 220900Z 17003KT 110V250 9999 FEW015 SCT020 24/18 Q1022
22/09/2018, 11:10:50

Description
Results
Ryanair Logo
Number of Pilots based at LEGE
0 Pilots Based here
Number of Ryanair Flights Departed from LEGE
6 Flights Departed
Number of Ryanair Flights Arrived at LEGE
6 Flights Arrived
Number of Ryanair Schedules Departing from LEGE
71 Schedules
Number of Ryanair Schedules Arriving at LEGE
70 Schedules
Number of Ryanair Schedules Departing from LEGE availible today
17 Schedules Today
Number of Ryanair Schedules Arriving at LEGE availible today
17 Schedules Today
Average Landing Rate at LEGE
-156 fpm
Ryanair Average Landing Rate at LEGE
-140 fpm
Total Fuel Purchased at LEGE by Ryanair
19,721.57 kgs / 43,478.17 lbs

Pilots Based at LEGE


Pilot ID
Pilot Name
Pilot Rank
No. of Flights
No. of Flying Hours
There are no pilots assigned to this hub!   Will you be the first?
Content